sensor_id;sensor_type;location;lat;lon;timestamp;temperature;humidity
16523;DHT22;19889;52.546;13.348;2023-02-15T00:01:40;7.40;99.90
16523;DHT22;19889;52.546;13.348;2023-02-15T00:04:11;7.40;99.90
16523;DHT22;19889;52.546;13.348;2023-02-15T00:06:39;7.40;99.90
16523;DHT22;19889;52.546;13.348;2023-02-15T00:09:06;7.40;99.90
16523;DHT22;19889;52.546;13.348;2023-02-15T00:11:33;7.40;99.90
16523;DHT22;19889;52.546;13.348;2023-02-15T00:14:07;7.40;99.90
16523;DHT22;19889;52.546;13.348;2023-02-15T00:16:35;7.40;99.90
16523;DHT22;19889;52.546;13.348;2023-02-15T00:19:04;7.30;99.90
16523;DHT22;19889;52.546;13.348;2023-02-15T00:21:32;7.30;99.90
16523;DHT22;19889;52.546;13.348;2023-02-15T00:24:00;7.40;99.90
16523;DHT22;19889;52.546;13.348;2023-02-15T00:26:28;7.30;99.90
16523;DHT22;19889;52.546;13.348;2023-02-15T00:28:55;7.30;99.90
16523;DHT22;19889;52.546;13.348;2023-02-15T00:31:26;7.30;99.90
16523;DHT22;19889;52.546;13.348;2023-02-15T00:33:56;7.30;99.90
16523;DHT22;19889;52.546;13.348;2023-02-15T00:36:28;7.30;99.90
16523;DHT22;19889;52.546;13.348;2023-02-15T00:38:55;7.40;99.90
16523;DHT22;19889;52.546;13.348;2023-02-15T00:41:22;7.20;99.90
16523;DHT22;19889;52.546;13.348;2023-02-15T00:43:49;7.30;99.90
16523;DHT22;19889;52.546;13.348;2023-02-15T00:46:16;7.30;99.90
16523;DHT22;19889;52.546;13.348;2023-02-15T00:48:44;7.40;99.90
16523;DHT22;19889;52.546;13.348;2023-02-15T00:51:11;7.20;99.90
16523;DHT22;19889;52.546;13.348;2023-02-15T00:53:39;7.20;99.90
16523;DHT22;19889;52.546;13.348;2023-02-15T00:56:07;7.20;99.90
16523;DHT22;19889;52.546;13.348;2023-02-15T00:58:34;7.20;99.90
16523;DHT22;19889;52.546;13.348;2023-02-15T01:01:03;7.10;99.90
16523;DHT22;19889;52.546;13.348;2023-02-15T01:03:32;7.20;99.90
16523;DHT22;19889;52.546;13.348;2023-02-15T01:05:59;7.20;99.90
16523;DHT22;19889;52.546;13.348;2023-02-15T01:08:26;7.20;99.90
16523;DHT22;19889;52.546;13.348;2023-02-15T01:10:54;7.20;99.90
16523;DHT22;19889;52.546;13.348;2023-02-15T01:13:21;7.20;99.90
16523;DHT22;19889;52.546;13.348;2023-02-15T01:15:53;7.10;99.90
16523;DHT22;19889;52.546;13.348;2023-02-15T01:18:20;7.10;99.90
16523;DHT22;19889;52.546;13.348;2023-02-15T01:20:48;7.10;99.90
16523;DHT22;19889;52.546;13.348;2023-02-15T01:23:15;7.10;99.90
16523;DHT22;19889;52.546;13.348;2023-02-15T01:25:45;7.10;99.90
16523;DHT22;19889;52.546;13.348;2023-02-15T01:28:13;7.10;99.90
16523;DHT22;19889;52.546;13.348;2023-02-15T01:30:41;6.50;99.90
16523;DHT22;19889;52.546;13.348;2023-02-15T01:33:09;7.00;99.90
16523;DHT22;19889;52.546;13.348;2023-02-15T01:35:43;7.00;99.90
16523;DHT22;19889;52.546;13.348;2023-02-15T01:38:11;7.00;99.90
16523;DHT22;19889;52.546;13.348;2023-02-15T01:40:38;7.00;99.90
16523;DHT22;19889;52.546;13.348;2023-02-15T01:43:09;6.90;99.90
16523;DHT22;19889;52.546;13.348;2023-02-15T01:45:39;6.90;99.90
16523;DHT22;19889;52.546;13.348;2023-02-15T01:48:17;6.90;99.90
16523;DHT22;19889;52.546;13.348;2023-02-15T01:50:49;6.50;99.90
16523;DHT22;19889;52.546;13.348;2023-02-15T01:53:23;6.90;99.90
16523;DHT22;19889;52.546;13.348;2023-02-15T01:55:57;6.90;99.90
16523;DHT22;19889;52.546;13.348;2023-02-15T01:58:26;6.90;99.90
16523;DHT22;19889;52.546;13.348;2023-02-15T02:00:58;6.90;99.90
16523;DHT22;19889;52.546;13.348;2023-02-15T02:03:30;6.90;99.90
16523;DHT22;19889;52.546;13.348;2023-02-15T02:06:03;6.80;99.90
16523;DHT22;19889;52.546;13.348;2023-02-15T02:08:31;6.90;99.90
16523;DHT22;19889;52.546;13.348;2023-02-15T02:10:58;6.90;99.90
16523;DHT22;19889;52.546;13.348;2023-02-15T02:13:25;6.80;99.90
16523;DHT22;19889;52.546;13.348;2023-02-15T02:16:00;6.90;99.90
16523;DHT22;19889;52.546;13.348;2023-02-15T02:18:37;6.80;99.90
16523;DHT22;19889;52.546;13.348;2023-02-15T02:22:03;6.80;99.90
16523;DHT22;19889;52.546;13.348;2023-02-15T02:25:04;6.80;99.90
16523;DHT22;19889;52.546;13.348;2023-02-15T02:27:39;6.80;99.90
16523;DHT22;19889;52.546;13.348;2023-02-15T02:30:28;6.80;99.90
16523;DHT22;19889;52.546;13.348;2023-02-15T02:33:19;7.00;99.90
16523;DHT22;19889;52.546;13.348;2023-02-15T02:35:54;7.10;99.90
16523;DHT22;19889;52.546;13.348;2023-02-15T02:38:28;7.10;99.90
16523;DHT22;19889;52.546;13.348;2023-02-15T02:41:10;7.00;99.90
16523;DHT22;19889;52.546;13.348;2023-02-15T02:43:47;6.70;99.90
16523;DHT22;19889;52.546;13.348;2023-02-15T02:46:19;6.90;99.90
16523;DHT22;19889;52.546;13.348;2023-02-15T02:48:49;7.00;99.90
16523;DHT22;19889;52.546;13.348;2023-02-15T02:51:16;7.00;99.90
16523;DHT22;19889;52.546;13.348;2023-02-15T02:53:49;6.70;99.90
16523;DHT22;19889;52.546;13.348;2023-02-15T02:58:50;7.00;99.90
16523;DHT22;19889;52.546;13.348;2023-02-15T03:01:23;6.90;99.90
16523;DHT22;19889;52.546;13.348;2023-02-15T03:03:56;6.60;99.90
16523;DHT22;19889;52.546;13.348;2023-02-15T03:06:30;6.70;99.90
16523;DHT22;19889;52.546;13.348;2023-02-15T03:09:03;6.60;99.90
16523;DHT22;19889;52.546;13.348;2023-02-15T03:11:33;6.60;99.90
16523;DHT22;19889;52.546;13.348;2023-02-15T03:14:00;6.50;99.90
16523;DHT22;19889;52.546;13.348;2023-02-15T03:16:27;6.70;99.90
16523;DHT22;19889;52.546;13.348;2023-02-15T03:18:59;6.60;99.90
16523;DHT22;19889;52.546;13.348;2023-02-15T03:21:36;6.80;99.90
16523;DHT22;19889;52.546;13.348;2023-02-15T03:24:09;6.50;99.90
16523;DHT22;19889;52.546;13.348;2023-02-15T03:26:38;6.50;99.90
16523;DHT22;19889;52.546;13.348;2023-02-15T03:29:07;6.50;99.90
16523;DHT22;19889;52.546;13.348;2023-02-15T03:31:37;6.60;99.90
16523;DHT22;19889;52.546;13.348;2023-02-15T03:34:10;6.60;99.90
16523;DHT22;19889;52.546;13.348;2023-02-15T03:36:43;6.50;99.90
16523;DHT22;19889;52.546;13.348;2023-02-15T03:39:18;6.90;99.90
16523;DHT22;19889;52.546;13.348;2023-02-15T03:41:51;6.50;99.90
16523;DHT22;19889;52.546;13.348;2023-02-15T03:44:25;6.70;99.90
16523;DHT22;19889;52.546;13.348;2023-02-15T03:46:58;6.60;99.90
16523;DHT22;19889;52.546;13.348;2023-02-15T03:49:31;6.70;99.90
16523;DHT22;19889;52.546;13.348;2023-02-15T03:52:03;6.50;99.90
16523;DHT22;19889;52.546;13.348;2023-02-15T03:54:33;6.50;99.90
16523;DHT22;19889;52.546;13.348;2023-02-15T03:57:17;6.50;99.90
16523;DHT22;19889;52.546;13.348;2023-02-15T04:00:05;6.50;99.90
16523;DHT22;19889;52.546;13.348;2023-02-15T04:03:08;6.40;99.90
16523;DHT22;19889;52.546;13.348;2023-02-15T04:05:38;6.40;99.90
16523;DHT22;19889;52.546;13.348;2023-02-15T04:08:05;6.40;99.90
16523;DHT22;19889;52.546;13.348;2023-02-15T04:10:32;6.40;99.90
16523;DHT22;19889;52.546;13.348;2023-02-15T04:13:16;6.40;99.90
16523;DHT22;19889;52.546;13.348;2023-02-15T04:15:43;6.60;99.90
16523;DHT22;19889;52.546;13.348;2023-02-15T04:18:28;6.40;99.90
16523;DHT22;19889;52.546;13.348;2023-02-15T04:21:13;6.50;99.90
16523;DHT22;19889;52.546;13.348;2023-02-15T04:23:58;6.40;99.90
16523;DHT22;19889;52.546;13.348;2023-02-15T04:26:43;6.30;99.90
16523;DHT22;19889;52.546;13.348;2023-02-15T04:29:09;6.20;99.90
16523;DHT22;19889;52.546;13.348;2023-02-15T04:31:36;6.40;99.90
16523;DHT22;19889;52.546;13.348;2023-02-15T04:34:03;6.30;99.90
16523;DHT22;19889;52.546;13.348;2023-02-15T04:36:32;6.40;99.90
16523;DHT22;19889;52.546;13.348;2023-02-15T04:38:59;6.30;99.90
16523;DHT22;19889;52.546;13.348;2023-02-15T04:41:25;6.70;99.90
16523;DHT22;19889;52.546;13.348;2023-02-15T04:43:52;6.30;99.90
16523;DHT22;19889;52.546;13.348;2023-02-15T04:46:19;6.30;99.90
16523;DHT22;19889;52.546;13.348;2023-02-15T04:48:46;6.10;99.90
16523;DHT22;19889;52.546;13.348;2023-02-15T04:51:13;6.00;99.90
16523;DHT22;19889;52.546;13.348;2023-02-15T04:53:42;6.50;99.90
16523;DHT22;19889;52.546;13.348;2023-02-15T04:56:08;6.30;99.90
16523;DHT22;19889;52.546;13.348;2023-02-15T04:58:35;6.10;99.90
16523;DHT22;19889;52.546;13.348;2023-02-15T05:01:06;6.30;99.90
16523;DHT22;19889;52.546;13.348;2023-02-15T05:03:33;6.00;99.90
16523;DHT22;19889;52.546;13.348;2023-02-15T05:06:00;6.00;99.90
16523;DHT22;19889;52.546;13.348;2023-02-15T05:08:28;6.00;99.90
16523;DHT22;19889;52.546;13.348;2023-02-15T05:10:56;5.80;99.90
16523;DHT22;19889;52.546;13.348;2023-02-15T05:13:23;6.00;99.90
16523;DHT22;19889;52.546;13.348;2023-02-15T05:15:51;5.90;99.90
16523;DHT22;19889;52.546;13.348;2023-02-15T05:18:20;6.00;99.90
16523;DHT22;19889;52.546;13.348;2023-02-15T05:20:48;5.70;99.90
16523;DHT22;19889;52.546;13.348;2023-02-15T05:23:15;5.70;99.90
16523;DHT22;19889;52.546;13.348;2023-02-15T05:25:46;5.70;99.90
16523;DHT22;19889;52.546;13.348;2023-02-15T05:28:38;5.90;99.90
16523;DHT22;19889;52.546;13.348;2023-02-15T05:31:07;5.70;99.90
16523;DHT22;19889;52.546;13.348;2023-02-15T05:33:34;5.80;99.90
16523;DHT22;19889;52.546;13.348;2023-02-15T05:36:02;5.70;99.90
16523;DHT22;19889;52.546;13.348;2023-02-15T05:38:29;5.70;99.90
16523;DHT22;19889;52.546;13.348;2023-02-15T05:40:56;5.80;99.90
16523;DHT22;19889;52.546;13.348;2023-02-15T05:43:23;5.50;99.90
16523;DHT22;19889;52.546;13.348;2023-02-15T05:45:53;5.70;99.90
16523;DHT22;19889;52.546;13.348;2023-02-15T05:48:21;5.70;99.90
16523;DHT22;19889;52.546;13.348;2023-02-15T05:50:57;5.00;99.90
16523;DHT22;19889;52.546;13.348;2023-02-15T05:53:24;5.60;99.90
16523;DHT22;19889;52.546;13.348;2023-02-15T05:55:51;5.60;99.90
16523;DHT22;19889;52.546;13.348;2023-02-15T05:58:19;5.30;99.90
16523;DHT22;19889;52.546;13.348;2023-02-15T06:00:46;5.30;99.90
16523;DHT22;19889;52.546;13.348;2023-02-15T06:03:14;5.10;99.90
16523;DHT22;19889;52.546;13.348;2023-02-15T06:05:42;5.60;99.90
16523;DHT22;19889;52.546;13.348;2023-02-15T06:08:09;5.60;99.90
16523;DHT22;19889;52.546;13.348;2023-02-15T06:10:36;4.90;99.90
16523;DHT22;19889;52.546;13.348;2023-02-15T06:13:03;5.30;99.90
16523;DHT22;19889;52.546;13.348;2023-02-15T06:15:29;5.30;99.90
16523;DHT22;19889;52.546;13.348;2023-02-15T06:17:56;5.20;99.90
16523;DHT22;19889;52.546;13.348;2023-02-15T06:20:25;5.40;99.90
16523;DHT22;19889;52.546;13.348;2023-02-15T06:22:52;5.20;99.90
16523;DHT22;19889;52.546;13.348;2023-02-15T06:25:19;5.40;99.90
16523;DHT22;19889;52.546;13.348;2023-02-15T06:27:46;5.10;99.90
16523;DHT22;19889;52.546;13.348;2023-02-15T06:30:13;5.10;99.90
16523;DHT22;19889;52.546;13.348;2023-02-15T06:32:40;4.80;99.90
16523;DHT22;19889;52.546;13.348;2023-02-15T06:35:08;5.00;99.90
16523;DHT22;19889;52.546;13.348;2023-02-15T06:37:38;5.10;99.90
16523;DHT22;19889;52.546;13.348;2023-02-15T06:40:06;5.10;99.90
16523;DHT22;19889;52.546;13.348;2023-02-15T06:42:34;4.90;99.90
16523;DHT22;19889;52.546;13.348;2023-02-15T06:45:00;5.00;99.90
16523;DHT22;19889;52.546;13.348;2023-02-15T06:47:27;5.00;99.90
16523;DHT22;19889;52.546;13.348;2023-02-15T06:49:54;5.20;99.90
16523;DHT22;19889;52.546;13.348;2023-02-15T06:52:21;5.40;99.90
16523;DHT22;19889;52.546;13.348;2023-02-15T06:54:50;5.10;99.90
16523;DHT22;19889;52.546;13.348;2023-02-15T06:57:17;4.90;99.90
16523;DHT22;19889;52.546;13.348;2023-02-15T06:59:44;5.20;99.90
16523;DHT22;19889;52.546;13.348;2023-02-15T07:02:11;5.10;99.90
16523;DHT22;19889;52.546;13.348;2023-02-15T07:04:38;5.00;99.90
16523;DHT22;19889;52.546;13.348;2023-02-15T07:07:08;5.00;99.90
16523;DHT22;19889;52.546;13.348;2023-02-15T07:09:36;5.10;99.90
16523;DHT22;19889;52.546;13.348;2023-02-15T07:12:06;5.00;99.90
16523;DHT22;19889;52.546;13.348;2023-02-15T07:14:50;5.00;99.90
16523;DHT22;19889;52.546;13.348;2023-02-15T07:17:17;5.00;99.90
16523;DHT22;19889;52.546;13.348;2023-02-15T07:19:44;5.00;99.90
16523;DHT22;19889;52.546;13.348;2023-02-15T07:22:11;5.10;99.90
16523;DHT22;19889;52.546;13.348;2023-02-15T07:24:38;5.40;99.90
16523;DHT22;19889;52.546;13.348;2023-02-15T07:27:07;5.10;99.90
16523;DHT22;19889;52.546;13.348;2023-02-15T07:29:34;5.10;99.90
16523;DHT22;19889;52.546;13.348;2023-02-15T07:32:01;5.20;99.90
16523;DHT22;19889;52.546;13.348;2023-02-15T07:34:28;5.50;99.90
16523;DHT22;19889;52.546;13.348;2023-02-15T07:36:55;5.10;99.90
16523;DHT22;19889;52.546;13.348;2023-02-15T07:39:22;5.20;99.90
16523;DHT22;19889;52.546;13.348;2023-02-15T07:41:49;5.20;99.90
16523;DHT22;19889;52.546;13.348;2023-02-15T07:44:19;5.60;99.90
16523;DHT22;19889;52.546;13.348;2023-02-15T07:46:45;5.10;99.90
16523;DHT22;19889;52.546;13.348;2023-02-15T07:49:12;5.30;99.90
16523;DHT22;19889;52.546;13.348;2023-02-15T07:51:40;5.10;99.90
16523;DHT22;19889;52.546;13.348;2023-02-15T07:54:07;5.30;99.90
16523;DHT22;19889;52.546;13.348;2023-02-15T07:56:34;5.10;99.90
16523;DHT22;19889;52.546;13.348;2023-02-15T07:59:01;5.50;99.90
16523;DHT22;19889;52.546;13.348;2023-02-15T08:01:34;5.30;99.90
16523;DHT22;19889;52.546;13.348;2023-02-15T08:04:02;5.30;99.90
16523;DHT22;19889;52.546;13.348;2023-02-15T08:06:31;5.30;99.90
16523;DHT22;19889;52.546;13.348;2023-02-15T08:08:58;5.00;99.90
16523;DHT22;19889;52.546;13.348;2023-02-15T08:11:27;5.20;99.90
16523;DHT22;19889;52.546;13.348;2023-02-15T08:14:06;5.20;99.90
16523;DHT22;19889;52.546;13.348;2023-02-15T08:16:36;5.00;99.90
16523;DHT22;19889;52.546;13.348;2023-02-15T08:19:05;5.30;99.90
16523;DHT22;19889;52.546;13.348;2023-02-15T08:21:34;5.00;99.90
16523;DHT22;19889;52.546;13.348;2023-02-15T08:24:01;5.30;99.90
16523;DHT22;19889;52.546;13.348;2023-02-15T08:26:29;5.00;99.90
16523;DHT22;19889;52.546;13.348;2023-02-15T08:28:56;5.10;99.90
16523;DHT22;19889;52.546;13.348;2023-02-15T08:31:24;4.80;99.90
16523;DHT22;19889;52.546;13.348;2023-02-15T08:33:54;4.90;99.90
16523;DHT22;19889;52.546;13.348;2023-02-15T08:36:22;4.80;99.90
16523;DHT22;19889;52.546;13.348;2023-02-15T08:38:49;4.70;99.90
16523;DHT22;19889;52.546;13.348;2023-02-15T08:41:17;4.70;99.90
16523;DHT22;19889;52.546;13.348;2023-02-15T08:43:47;4.80;99.90
16523;DHT22;19889;52.546;13.348;2023-02-15T08:46:15;4.80;99.90
16523;DHT22;19889;52.546;13.348;2023-02-15T08:48:43;4.50;99.90
16523;DHT22;19889;52.546;13.348;2023-02-15T08:51:13;4.80;99.90
16523;DHT22;19889;52.546;13.348;2023-02-15T08:53:41;4.30;99.90
16523;DHT22;19889;52.546;13.348;2023-02-15T08:56:10;4.80;99.90
16523;DHT22;19889;52.546;13.348;2023-02-15T08:58:38;4.60;99.90
16523;DHT22;19889;52.546;13.348;2023-02-15T09:01:12;4.60;99.90
16523;DHT22;19889;52.546;13.348;2023-02-15T09:03:39;4.70;99.90
16523;DHT22;19889;52.546;13.348;2023-02-15T09:06:06;4.90;99.90
16523;DHT22;19889;52.546;13.348;2023-02-15T09:08:35;4.80;99.90
16523;DHT22;19889;52.546;13.348;2023-02-15T09:11:08;4.90;99.90
16523;DHT22;19889;52.546;13.348;2023-02-15T09:13:35;4.90;99.90
16523;DHT22;19889;52.546;13.348;2023-02-15T09:16:04;5.10;99.90
16523;DHT22;19889;52.546;13.348;2023-02-15T09:18:33;4.90;99.90
16523;DHT22;19889;52.546;13.348;2023-02-15T09:21:08;5.20;99.90
16523;DHT22;19889;52.546;13.348;2023-02-15T09:23:37;5.00;99.90
16523;DHT22;19889;52.546;13.348;2023-02-15T09:26:05;5.00;99.90
16523;DHT22;19889;52.546;13.348;2023-02-15T09:28:33;5.00;99.90
16523;DHT22;19889;52.546;13.348;2023-02-15T09:31:08;5.20;99.90
16523;DHT22;19889;52.546;13.348;2023-02-15T09:33:36;5.20;99.90
16523;DHT22;19889;52.546;13.348;2023-02-15T09:36:04;5.10;99.90
16523;DHT22;19889;52.546;13.348;2023-02-15T09:38:31;5.10;99.90
16523;DHT22;19889;52.546;13.348;2023-02-15T09:41:10;5.30;99.90
16523;DHT22;19889;52.546;13.348;2023-02-15T09:43:42;5.10;99.90
16523;DHT22;19889;52.546;13.348;2023-02-15T09:46:26;5.50;99.90
16523;DHT22;19889;52.546;13.348;2023-02-15T09:49:02;5.10;99.90
16523;DHT22;19889;52.546;13.348;2023-02-15T09:51:52;5.30;99.90
16523;DHT22;19889;52.546;13.348;2023-02-15T09:54:42;5.30;99.90
16523;DHT22;19889;52.546;13.348;2023-02-15T09:57:19;5.30;99.90
16523;DHT22;19889;52.546;13.348;2023-02-15T09:59:59;5.50;99.90
16523;DHT22;19889;52.546;13.348;2023-02-15T10:02:55;5.40;99.90
16523;DHT22;19889;52.546;13.348;2023-02-15T10:05:34;5.00;99.90
16523;DHT22;19889;52.546;13.348;2023-02-15T10:08:31;5.30;99.90
16523;DHT22;19889;52.546;13.348;2023-02-15T10:11:11;5.20;99.90
16523;DHT22;19889;52.546;13.348;2023-02-15T10:14:09;5.10;99.90
16523;DHT22;19889;52.546;13.348;2023-02-15T10:16:46;5.50;99.90
16523;DHT22;19889;52.546;13.348;2023-02-15T10:19:22;5.50;99.90
16523;DHT22;19889;52.546;13.348;2023-02-15T10:22:01;5.40;99.90
16523;DHT22;19889;52.546;13.348;2023-02-15T10:24:45;5.60;99.90
16523;DHT22;19889;52.546;13.348;2023-02-15T10:27:19;5.50;99.90
16523;DHT22;19889;52.546;13.348;2023-02-15T10:29:58;5.50;99.90
16523;DHT22;19889;52.546;13.348;2023-02-15T10:32:34;5.50;99.90
16523;DHT22;19889;52.546;13.348;2023-02-15T10:35:08;5.20;99.90
16523;DHT22;19889;52.546;13.348;2023-02-15T10:38:04;5.70;99.90
16523;DHT22;19889;52.546;13.348;2023-02-15T10:40:40;5.50;99.90
16523;DHT22;19889;52.546;13.348;2023-02-15T10:43:23;5.60;99.90
16523;DHT22;19889;52.546;13.348;2023-02-15T10:46:05;5.50;99.90
16523;DHT22;19889;52.546;13.348;2023-02-15T10:48:59;5.60;99.90
16523;DHT22;19889;52.546;13.348;2023-02-15T10:51:37;5.50;99.90
16523;DHT22;19889;52.546;13.348;2023-02-15T10:54:19;5.70;99.90
16523;DHT22;19889;52.546;13.348;2023-02-15T10:56:54;5.70;99.90
16523;DHT22;19889;52.546;13.348;2023-02-15T10:59:45;5.60;99.90
16523;DHT22;19889;52.546;13.348;2023-02-15T11:02:23;5.60;99.90
16523;DHT22;19889;52.546;13.348;2023-02-15T11:04:57;5.80;99.90
16523;DHT22;19889;52.546;13.348;2023-02-15T11:07:33;5.80;99.90
16523;DHT22;19889;52.546;13.348;2023-02-15T11:10:05;5.90;99.90
16523;DHT22;19889;52.546;13.348;2023-02-15T11:12:40;5.80;99.90
16523;DHT22;19889;52.546;13.348;2023-02-15T11:15:15;5.70;99.90
16523;DHT22;19889;52.546;13.348;2023-02-15T11:17:50;5.80;99.90
16523;DHT22;19889;52.546;13.348;2023-02-15T11:20:23;5.90;99.90
16523;DHT22;19889;52.546;13.348;2023-02-15T11:22:51;5.90;99.90
16523;DHT22;19889;52.546;13.348;2023-02-15T11:25:22;6.20;99.90
16523;DHT22;19889;52.546;13.348;2023-02-15T11:27:50;6.00;99.90
16523;DHT22;19889;52.546;13.348;2023-02-15T11:30:21;6.20;99.90
16523;DHT22;19889;52.546;13.348;2023-02-15T11:32:51;6.10;99.90
16523;DHT22;19889;52.546;13.348;2023-02-15T11:35:25;6.10;99.90
16523;DHT22;19889;52.546;13.348;2023-02-15T11:37:57;6.30;99.90
16523;DHT22;19889;52.546;13.348;2023-02-15T11:40:28;6.40;99.90
16523;DHT22;19889;52.546;13.348;2023-02-15T11:42:58;6.40;99.90
16523;DHT22;19889;52.546;13.348;2023-02-15T11:45:29;6.20;99.90
16523;DHT22;19889;52.546;13.348;2023-02-15T11:47:58;6.20;99.90
16523;DHT22;19889;52.546;13.348;2023-02-15T11:50:28;6.40;99.90
16523;DHT22;19889;52.546;13.348;2023-02-15T11:52:59;6.40;99.90
16523;DHT22;19889;52.546;13.348;2023-02-15T11:55:27;6.50;99.90
16523;DHT22;19889;52.546;13.348;2023-02-15T11:57:59;6.60;99.90
16523;DHT22;19889;52.546;13.348;2023-02-15T12:00:34;6.50;99.90
16523;DHT22;19889;52.546;13.348;2023-02-15T12:03:09;6.50;99.90
16523;DHT22;19889;52.546;13.348;2023-02-15T12:05:41;6.60;99.90
16523;DHT22;19889;52.546;13.348;2023-02-15T12:08:17;6.70;99.90
16523;DHT22;19889;52.546;13.348;2023-02-15T12:10:56;6.90;99.90
16523;DHT22;19889;52.546;13.348;2023-02-15T12:13:24;6.90;99.90
16523;DHT22;19889;52.546;13.348;2023-02-15T12:15:53;6.80;99.90
16523;DHT22;19889;52.546;13.348;2023-02-15T12:18:33;7.00;99.90
16523;DHT22;19889;52.546;13.348;2023-02-15T12:21:03;7.10;99.90
16523;DHT22;19889;52.546;13.348;2023-02-15T12:23:32;6.90;99.90
16523;DHT22;19889;52.546;13.348;2023-02-15T12:26:00;7.20;99.90
16523;DHT22;19889;52.546;13.348;2023-02-15T12:28:31;7.10;99.90
16523;DHT22;19889;52.546;13.348;2023-02-15T12:30:59;7.40;99.90
16523;DHT22;19889;52.546;13.348;2023-02-15T12:33:30;7.20;99.90
16523;DHT22;19889;52.546;13.348;2023-02-15T12:36:01;7.30;99.90
16523;DHT22;19889;52.546;13.348;2023-02-15T12:38:29;7.20;99.90
16523;DHT22;19889;52.546;13.348;2023-02-15T12:40:58;7.20;99.90
16523;DHT22;19889;52.546;13.348;2023-02-15T12:43:27;7.50;99.90
16523;DHT22;19889;52.546;13.348;2023-02-15T12:46:13;7.40;99.90
16523;DHT22;19889;52.546;13.348;2023-02-15T12:48:42;7.30;99.90
16523;DHT22;19889;52.546;13.348;2023-02-15T12:51:14;7.50;99.90
16523;DHT22;19889;52.546;13.348;2023-02-15T12:53:42;7.70;99.90
16523;DHT22;19889;52.546;13.348;2023-02-15T12:56:10;7.40;99.90
16523;DHT22;19889;52.546;13.348;2023-02-15T12:58:39;7.70;99.90
16523;DHT22;19889;52.546;13.348;2023-02-15T13:01:14;7.70;99.90
16523;DHT22;19889;52.546;13.348;2023-02-15T13:03:56;7.80;99.90
16523;DHT22;19889;52.546;13.348;2023-02-15T13:06:24;7.60;99.90
16523;DHT22;19889;52.546;13.348;2023-02-15T13:08:53;7.70;99.90
16523;DHT22;19889;52.546;13.348;2023-02-15T13:11:22;7.90;99.90
16523;DHT22;19889;52.546;13.348;2023-02-15T13:13:53;7.90;99.90
16523;DHT22;19889;52.546;13.348;2023-02-15T13:16:27;7.80;99.90
16523;DHT22;19889;52.546;13.348;2023-02-15T13:19:01;8.20;99.90
16523;DHT22;19889;52.546;13.348;2023-02-15T13:21:32;8.00;99.90
16523;DHT22;19889;52.546;13.348;2023-02-15T13:24:04;8.00;99.90
16523;DHT22;19889;52.546;13.348;2023-02-15T13:26:32;8.10;99.90
16523;DHT22;19889;52.546;13.348;2023-02-15T13:29:06;8.20;99.90
16523;DHT22;19889;52.546;13.348;2023-02-15T13:31:35;8.20;99.90
16523;DHT22;19889;52.546;13.348;2023-02-15T13:34:09;8.20;99.90
16523;DHT22;19889;52.546;13.348;2023-02-15T13:36:45;8.10;99.90
16523;DHT22;19889;52.546;13.348;2023-02-15T13:39:22;8.40;99.90
16523;DHT22;19889;52.546;13.348;2023-02-15T13:41:56;8.50;99.90
16523;DHT22;19889;52.546;13.348;2023-02-15T13:44:45;8.60;99.90
16523;DHT22;19889;52.546;13.348;2023-02-15T13:47:21;8.40;99.90
16523;DHT22;19889;52.546;13.348;2023-02-15T13:50:05;8.60;99.90
16523;DHT22;19889;52.546;13.348;2023-02-15T13:52:42;8.40;99.90
16523;DHT22;19889;52.546;13.348;2023-02-15T13:55:33;8.50;99.90
16523;DHT22;19889;52.546;13.348;2023-02-15T14:01:09;8.60;99.90
16523;DHT22;19889;52.546;13.348;2023-02-15T14:03:56;8.60;99.90
16523;DHT22;19889;52.546;13.348;2023-02-15T14:06:47;8.60;99.90
16523;DHT22;19889;52.546;13.348;2023-02-15T14:09:26;9.10;99.90
16523;DHT22;19889;52.546;13.348;2023-02-15T14:12:07;8.60;99.90
16523;DHT22;19889;52.546;13.348;2023-02-15T14:15:08;8.60;99.90
16523;DHT22;19889;52.546;13.348;2023-02-15T14:17:45;8.60;99.90
16523;DHT22;19889;52.546;13.348;2023-02-15T14:20:20;8.60;99.90
16523;DHT22;19889;52.546;13.348;2023-02-15T14:22:54;8.70;99.90
16523;DHT22;19889;52.546;13.348;2023-02-15T14:25:27;8.70;99.90
16523;DHT22;19889;52.546;13.348;2023-02-15T14:28:00;8.70;99.90
16523;DHT22;19889;52.546;13.348;2023-02-15T14:30:31;8.80;99.90
16523;DHT22;19889;52.546;13.348;2023-02-15T14:33:02;8.80;99.90
16523;DHT22;19889;52.546;13.348;2023-02-15T14:35:32;8.70;99.90
16523;DHT22;19889;52.546;13.348;2023-02-15T14:38:06;8.60;99.90
16523;DHT22;19889;52.546;13.348;2023-02-15T14:40:42;9.10;99.90
16523;DHT22;19889;52.546;13.348;2023-02-15T14:43:37;9.00;99.90
16523;DHT22;19889;52.546;13.348;2023-02-15T14:46:10;8.90;99.90
16523;DHT22;19889;52.546;13.348;2023-02-15T14:48:42;8.80;99.90
16523;DHT22;19889;52.546;13.348;2023-02-15T14:57:34;9.30;99.90
16523;DHT22;19889;52.546;13.348;2023-02-15T15:00:04;9.00;99.90
16523;DHT22;19889;52.546;13.348;2023-02-15T15:02:52;9.20;99.90
16523;DHT22;19889;52.546;13.348;2023-02-15T15:05:22;9.00;99.90
16523;DHT22;19889;52.546;13.348;2023-02-15T15:07:53;9.00;99.90
16523;DHT22;19889;52.546;13.348;2023-02-15T15:10:40;9.20;99.90
16523;DHT22;19889;52.546;13.348;2023-02-15T15:13:36;9.10;99.90
16523;DHT22;19889;52.546;13.348;2023-02-15T15:16:28;9.10;99.90
16523;DHT22;19889;52.546;13.348;2023-02-15T15:18:56;9.10;99.90
16523;DHT22;19889;52.546;13.348;2023-02-15T15:21:52;9.20;99.90
16523;DHT22;19889;52.546;13.348;2023-02-15T15:24:50;9.10;99.90
16523;DHT22;19889;52.546;13.348;2023-02-15T15:42:30;9.10;99.90
16523;DHT22;19889;52.546;13.348;2023-02-15T15:48:25;9.10;99.90
16523;DHT22;19889;52.546;13.348;2023-02-15T15:50:57;9.30;99.90
16523;DHT22;19889;52.546;13.348;2023-02-15T15:53:29;9.10;99.90
16523;DHT22;19889;52.546;13.348;2023-02-15T15:56:01;9.20;99.90
16523;DHT22;19889;52.546;13.348;2023-02-15T15:58:30;9.20;99.90
16523;DHT22;19889;52.546;13.348;2023-02-15T16:01:02;9.30;99.90
16523;DHT22;19889;52.546;13.348;2023-02-15T16:03:30;9.40;99.90
16523;DHT22;19889;52.546;13.348;2023-02-15T16:05:57;9.10;99.90
16523;DHT22;19889;52.546;13.348;2023-02-15T16:08:30;9.30;99.90
16523;DHT22;19889;52.546;13.348;2023-02-15T16:10:58;9.30;99.90
16523;DHT22;19889;52.546;13.348;2023-02-15T16:13:26;9.30;99.90
16523;DHT22;19889;52.546;13.348;2023-02-15T16:15:54;9.30;99.90
16523;DHT22;19889;52.546;13.348;2023-02-15T16:18:24;9.50;99.90
16523;DHT22;19889;52.546;13.348;2023-02-15T16:20:54;9.10;99.90
16523;DHT22;19889;52.546;13.348;2023-02-15T16:23:49;9.10;99.90
16523;DHT22;19889;52.546;13.348;2023-02-15T16:26:29;9.10;99.90
16523;DHT22;19889;52.546;13.348;2023-02-15T16:29:00;9.30;99.90
16523;DHT22;19889;52.546;13.348;2023-02-15T16:31:27;9.30;99.90
16523;DHT22;19889;52.546;13.348;2023-02-15T16:33:54;9.00;99.90